createdAt,value
2022-12-18T00:00:55.022Z,10.18
2022-12-18T00:03:39.234Z,8.00
2022-12-18T00:06:18.094Z,9.27
2022-12-18T00:09:45.734Z,8.97
2022-12-18T00:11:52.247Z,10.15
2022-12-18T00:14:46.103Z,9.75
2022-12-18T00:17:24.681Z,10.00
2022-12-18T00:20:01.263Z,10.98
2022-12-18T00:22:38.906Z,7.45
2022-12-18T00:25:12.247Z,7.47
2022-12-18T00:27:48.578Z,8.48
2022-12-18T00:30:21.834Z,10.38
2022-12-18T00:32:56.496Z,10.68
2022-12-18T00:38:02.957Z,9.25
2022-12-18T00:40:42.403Z,6.53
2022-12-18T00:43:10.671Z,8.75
2022-12-18T00:45:44.423Z,9.65
2022-12-18T00:48:20.209Z,11.52
2022-12-18T00:50:52.460Z,10.98
2022-12-18T00:53:26.642Z,10.40
2022-12-18T00:56:06.564Z,10.82
2022-12-18T00:58:40.369Z,8.23
2022-12-18T01:01:11.959Z,12.60
2022-12-18T01:03:42.865Z,7.75
2022-12-18T01:06:21.162Z,9.70
2022-12-18T01:09:04.070Z,9.43
2022-12-18T01:11:46.610Z,9.77
2022-12-18T01:17:38.759Z,8.82
2022-12-18T01:20:28.367Z,8.23
2022-12-18T01:23:21.558Z,6.38
2022-12-18T01:26:07.675Z,8.77
2022-12-18T01:29:26.934Z,10.32
2022-12-18T01:31:33.843Z,9.60
2022-12-18T01:34:11.015Z,10.65
2022-12-18T01:36:46.758Z,9.88
2022-12-18T01:39:46.272Z,11.60
2022-12-18T01:42:25.051Z,11.90
2022-12-18T01:45:28.551Z,11.30
2022-12-18T01:48:21.369Z,8.52
2022-12-18T01:51:24.599Z,12.65
2022-12-18T01:54:04.006Z,11.07
2022-12-18T01:56:43.332Z,9.55
2022-12-18T01:59:21.588Z,10.38
2022-12-18T02:01:50.108Z,9.55
2022-12-18T02:04:29.217Z,10.05
2022-12-18T02:07:21.587Z,10.90
2022-12-18T02:10:01.583Z,8.43
2022-12-18T02:13:06.910Z,9.65
2022-12-18T02:15:50.944Z,8.32
2022-12-18T02:18:32.364Z,9.90
2022-12-18T02:21:23.148Z,12.80
2022-12-18T02:24:38.355Z,10.75
2022-12-18T02:27:10.647Z,9.35
2022-12-18T02:29:58.951Z,9.27
2022-12-18T02:32:55.190Z,8.10
2022-12-18T02:35:32.040Z,9.18
2022-12-18T02:38:05.456Z,8.75
2022-12-18T02:40:40.442Z,10.43
2022-12-18T02:43:18.677Z,11.25
2022-12-18T02:45:56.936Z,11.68
2022-12-18T02:48:31.702Z,9.77
2022-12-18T02:51:22.039Z,10.70
2022-12-18T02:54:10.514Z,8.55
2022-12-18T02:56:53.043Z,9.93
2022-12-18T02:59:36.444Z,8.32
2022-12-18T03:02:15.811Z,9.68
2022-12-18T03:05:14.910Z,9.00
2022-12-18T03:08:02.342Z,8.70
2022-12-18T03:10:41.744Z,9.35
2022-12-18T03:13:27.636Z,10.95
2022-12-18T03:15:58.530Z,6.47
2022-12-18T03:18:48.658Z,7.88
2022-12-18T03:21:22.088Z,8.57
2022-12-18T03:23:52.087Z,7.68
2022-12-18T03:26:26.014Z,5.03
2022-12-18T03:29:03.946Z,7.28
2022-12-18T03:34:24.774Z,7.63
2022-12-18T03:36:53.954Z,7.30
2022-12-18T03:39:24.981Z,6.43
2022-12-18T03:42:12.405Z,8.70
2022-12-18T03:45:12.242Z,6.00
2022-12-18T03:48:10.277Z,6.93
2022-12-18T03:50:58.666Z,8.75
2022-12-18T03:53:37.097Z,7.35
2022-12-18T03:56:13.528Z,7.20
2022-12-18T03:58:46.004Z,6.53
2022-12-18T04:01:32.567Z,7.75
2022-12-18T04:04:05.207Z,6.97
2022-12-18T04:06:40.759Z,7.95
2022-12-18T04:09:15.164Z,7.25
2022-12-18T04:11:47.798Z,7.03
2022-12-18T04:14:18.164Z,6.47
2022-12-18T04:16:49.645Z,7.68
2022-12-18T04:19:20.039Z,7.45
2022-12-18T04:21:50.985Z,8.15
2022-12-18T04:24:19.793Z,5.90
2022-12-18T04:27:01.890Z,7.28
2022-12-18T04:29:34.263Z,6.75
2022-12-18T04:32:02.210Z,7.72
2022-12-18T04:34:32.151Z,4.03
2022-12-18T04:37:00.008Z,7.68
2022-12-18T04:39:28.047Z,5.97
2022-12-18T04:42:00.690Z,6.40
2022-12-18T04:44:29.436Z,7.35
2022-12-18T04:46:57.637Z,7.95
2022-12-18T04:49:28.416Z,7.10
2022-12-18T04:51:56.427Z,6.72
2022-12-18T04:54:25.194Z,6.97
2022-12-18T04:56:53.189Z,5.55
2022-12-18T04:59:21.652Z,8.95
2022-12-18T05:01:49.849Z,6.15
2022-12-18T05:04:17.620Z,5.25
2022-12-18T05:06:54.900Z,5.25
2022-12-18T05:09:22.499Z,7.25
2022-12-18T05:11:53.276Z,4.65
2022-12-18T05:14:24.247Z,5.75
2022-12-18T05:16:56.725Z,6.10
2022-12-18T05:19:27.081Z,7.05
2022-12-18T05:21:54.710Z,6.13
2022-12-18T05:24:22.735Z,3.50
2022-12-18T05:26:50.558Z,5.43
2022-12-18T05:29:20.895Z,4.75
2022-12-18T05:31:48.673Z,5.35
2022-12-18T05:34:16.811Z,5.32
2022-12-18T05:36:44.656Z,4.78
2022-12-18T05:39:12.620Z,5.95
2022-12-18T05:41:40.265Z,4.55
2022-12-18T05:44:09.518Z,3.67
2022-12-18T05:46:38.818Z,5.93
2022-12-18T05:49:06.494Z,4.90
2022-12-18T05:51:34.255Z,3.45
2022-12-18T05:54:05.494Z,3.63
2022-12-18T05:56:33.455Z,5.20
2022-12-18T05:59:03.201Z,3.92
2022-12-18T06:01:39.550Z,4.50
2022-12-18T06:04:07.944Z,4.53
2022-12-18T06:09:20.340Z,4.13
2022-12-18T06:11:50.555Z,4.00
2022-12-18T06:14:22.128Z,4.95
2022-12-18T06:16:53.407Z,3.30
2022-12-18T06:19:21.631Z,4.47
2022-12-18T06:21:50.322Z,4.97
2022-12-18T06:24:22.162Z,4.85
2022-12-18T06:26:53.685Z,3.55
2022-12-18T06:29:21.710Z,3.83
2022-12-18T06:31:50.066Z,2.58
2022-12-18T06:34:17.806Z,3.97
2022-12-18T06:36:47.814Z,3.35
2022-12-18T06:39:16.598Z,4.18
2022-12-18T06:41:46.709Z,5.10
2022-12-18T06:44:21.748Z,2.38
2022-12-18T06:46:49.879Z,4.60
2022-12-18T06:52:35.300Z,3.83
2022-12-18T06:58:26.615Z,3.33
2022-12-18T07:01:08.916Z,3.25
2022-12-18T07:03:45.598Z,3.58
2022-12-18T07:06:40.134Z,3.47
2022-12-18T07:09:19.140Z,3.95
2022-12-18T07:11:56.985Z,2.63
2022-12-18T07:14:25.886Z,2.65
2022-12-18T07:17:01.272Z,3.33
2022-12-18T07:19:32.885Z,4.03
2022-12-18T07:22:00.878Z,4.95
2022-12-18T07:24:29.475Z,3.90
2022-12-18T07:26:56.899Z,3.60
2022-12-18T07:29:25.006Z,5.78
2022-12-18T07:31:54.284Z,5.20
2022-12-18T07:34:23.214Z,2.65
2022-12-18T07:36:53.510Z,3.70
2022-12-18T07:39:21.496Z,3.45
2022-12-18T07:42:14.507Z,3.28
2022-12-18T07:44:42.291Z,3.65
2022-12-18T07:47:12.177Z,3.53
2022-12-18T07:49:40.916Z,3.15
2022-12-18T07:52:10.575Z,4.03
2022-12-18T07:54:38.243Z,3.63
2022-12-18T07:57:16.443Z,3.08
2022-12-18T07:59:53.955Z,2.80
2022-12-18T08:02:21.714Z,3.78
2022-12-18T08:04:49.881Z,2.58
2022-12-18T08:07:19.747Z,3.63
2022-12-18T08:09:47.491Z,4.60
2022-12-18T08:12:20.248Z,4.07
2022-12-18T08:14:47.980Z,2.70
2022-12-18T08:17:16.188Z,4.22
2022-12-18T08:19:44.153Z,4.85
2022-12-18T08:22:11.774Z,4.40
2022-12-18T08:24:40.689Z,3.83
2022-12-18T08:29:59.748Z,3.83
2022-12-18T08:32:28.517Z,3.70
2022-12-18T08:34:56.780Z,3.85
2022-12-18T08:37:25.602Z,3.65
2022-12-18T08:39:54.631Z,3.72
2022-12-18T08:42:41.544Z,4.13
2022-12-18T08:45:10.441Z,4.25
2022-12-18T08:47:39.677Z,3.15
2022-12-18T08:50:12.440Z,3.63
2022-12-18T08:52:40.703Z,5.07
2022-12-18T08:55:10.671Z,3.88
2022-12-18T08:57:39.427Z,3.58
2022-12-18T09:00:07.985Z,4.85
2022-12-18T09:02:35.637Z,2.72
2022-12-18T09:05:03.454Z,4.70
2022-12-18T09:07:31.131Z,5.35
2022-12-18T09:09:59.664Z,2.78
2022-12-18T09:12:30.033Z,3.53
2022-12-18T09:14:59.196Z,5.32
2022-12-18T09:17:28.087Z,4.80
2022-12-18T09:19:57.036Z,4.18
2022-12-18T09:22:24.843Z,4.00
2022-12-18T09:24:54.884Z,3.60
2022-12-18T09:27:26.304Z,5.05
2022-12-18T09:29:53.924Z,3.38
2022-12-18T09:32:22.624Z,6.28
2022-12-18T09:34:51.777Z,3.10
2022-12-18T09:37:21.406Z,5.07
2022-12-18T09:39:51.068Z,4.03
2022-12-18T09:42:23.142Z,3.40
2022-12-18T09:44:54.956Z,5.88
2022-12-18T09:47:29.480Z,3.22
2022-12-18T09:50:04.611Z,4.43
2022-12-18T09:52:53.560Z,4.40
2022-12-18T09:55:37.441Z,3.50
2022-12-18T09:58:25.413Z,3.28
2022-12-18T10:00:54.307Z,3.80
2022-12-18T10:03:23.089Z,5.05
2022-12-18T10:06:15.620Z,4.53
2022-12-18T10:09:20.983Z,4.65
2022-12-18T10:12:08.754Z,5.28
2022-12-18T10:14:42.769Z,4.97
2022-12-18T10:17:30.216Z,3.53
2022-12-18T10:20:04.232Z,4.47
2022-12-18T10:23:10.831Z,5.43
2022-12-18T10:25:53.899Z,5.80
2022-12-18T10:28:23.261Z,3.25
2022-12-18T10:30:56.136Z,5.38
2022-12-18T10:33:25.749Z,4.55
2022-12-18T10:35:54.043Z,5.93
2022-12-18T10:38:29.250Z,4.45
2022-12-18T10:41:04.045Z,5.35
2022-12-18T10:46:04.908Z,4.82
2022-12-18T10:48:36.290Z,4.72
2022-12-18T10:51:12.262Z,4.45
2022-12-18T10:53:44.705Z,5.05
2022-12-18T10:56:13.483Z,4.30
2022-12-18T10:59:51.639Z,5.40
2022-12-18T11:05:40.726Z,5.07
2022-12-18T11:08:23.837Z,5.07
2022-12-18T11:10:52.003Z,4.57
2022-12-18T11:13:41.643Z,4.93
2022-12-18T11:16:24.614Z,4.55
2022-12-18T11:19:09.579Z,4.30
2022-12-18T11:30:44.181Z,3.58
2022-12-18T11:33:31.936Z,5.07
2022-12-18T11:36:23.759Z,7.63
2022-12-18T11:38:55.971Z,5.07
2022-12-18T11:42:04.077Z,1.83
2022-12-18T11:44:56.263Z,5.25
2022-12-18T11:48:17.775Z,3.67
2022-12-18T11:51:30.255Z,3.97
2022-12-18T12:01:18.622Z,5.45
2022-12-18T12:05:04.253Z,5.57
2022-12-18T12:12:05.767Z,2.13
2022-12-18T12:15:54.714Z,3.78
2022-12-18T12:18:57.013Z,4.55
2022-12-18T12:21:50.184Z,4.22
2022-12-18T12:24:46.969Z,4.43
2022-12-18T12:27:27.212Z,4.05
2022-12-18T12:30:12.130Z,5.20
2022-12-18T12:32:57.946Z,4.80
2022-12-18T12:35:57.246Z,4.07
2022-12-18T12:38:33.050Z,2.97
2022-12-18T12:41:40.822Z,5.22
2022-12-18T12:44:17.207Z,4.18
2022-12-18T12:46:56.334Z,4.28
2022-12-18T12:49:28.936Z,3.45
2022-12-18T12:52:23.034Z,5.68
2022-12-18T12:54:52.136Z,4.80
2022-12-18T12:57:37.564Z,5.63
2022-12-18T13:00:15.692Z,5.53
2022-12-18T13:03:06.869Z,7.07
2022-12-18T13:05:55.773Z,3.40
2022-12-18T13:08:33.331Z,6.43
2022-12-18T13:11:21.812Z,5.55
2022-12-18T13:13:58.012Z,4.60
2022-12-18T13:16:30.495Z,5.55
2022-12-18T13:19:00.580Z,4.57
2022-12-18T13:21:34.581Z,5.72
2022-12-18T13:24:28.643Z,4.82
2022-12-18T13:26:56.839Z,5.78
2022-12-18T13:29:48.516Z,4.70
2022-12-18T13:32:24.095Z,4.00
2022-12-18T13:35:23.493Z,4.72
2022-12-18T13:37:56.491Z,5.55
2022-12-18T13:40:49.897Z,4.03
2022-12-18T13:43:23.037Z,5.07
2022-12-18T13:46:46.257Z,5.25
2022-12-18T13:49:51.875Z,5.03
2022-12-18T13:52:43.428Z,4.20
2022-12-18T13:55:21.359Z,5.53
2022-12-18T13:57:50.678Z,5.05
2022-12-18T14:00:48.054Z,6.38
2022-12-18T14:03:45.984Z,4.03
2022-12-18T14:06:18.367Z,4.72
2022-12-18T14:08:48.736Z,5.70
2022-12-18T14:11:26.338Z,4.82
2022-12-18T14:13:55.341Z,4.88
2022-12-18T14:16:35.988Z,6.10
2022-12-18T14:19:15.083Z,4.38
2022-12-18T14:22:07.389Z,4.38
2022-12-18T14:24:35.660Z,4.95
2022-12-18T14:27:28.922Z,4.68
2022-12-18T14:30:25.797Z,6.30
2022-12-18T14:33:24.894Z,5.30
2022-12-18T14:36:17.482Z,6.28
2022-12-18T14:38:57.754Z,6.30
2022-12-18T14:41:33.228Z,6.88
2022-12-18T14:44:12.928Z,5.97
2022-12-18T14:47:10.487Z,6.32
2022-12-18T14:49:43.676Z,5.30
2022-12-18T14:52:35.811Z,4.85
2022-12-18T14:55:09.457Z,6.88
2022-12-18T14:57:42.945Z,3.97
2022-12-18T15:00:22.888Z,5.53
2022-12-18T15:03:02.810Z,6.30
2022-12-18T15:05:55.461Z,3.92
2022-12-18T15:08:37.260Z,6.68
2022-12-18T15:11:27.668Z,7.10
2022-12-18T15:13:56.287Z,6.60
2022-12-18T15:16:25.580Z,4.63
2022-12-18T15:18:54.564Z,4.53
2022-12-18T15:21:22.687Z,6.32
2022-12-18T15:23:54.540Z,5.63
2022-12-18T15:26:24.178Z,6.00
2022-12-18T15:28:57.351Z,5.65
2022-12-18T15:31:37.585Z,4.70
2022-12-18T15:34:20.408Z,5.07
2022-12-18T15:36:52.216Z,5.53
2022-12-18T15:39:25.701Z,4.30
2022-12-18T15:42:38.984Z,6.78
2022-12-18T15:45:13.016Z,4.32
2022-12-18T15:50:37.407Z,4.70
2022-12-18T15:53:26.487Z,4.63
2022-12-18T15:56:39.062Z,4.13
2022-12-18T15:59:25.761Z,5.93
2022-12-18T16:01:57.635Z,5.70
2022-12-18T16:04:34.334Z,5.60
2022-12-18T16:07:22.997Z,5.72
2022-12-18T16:09:51.184Z,4.47
2022-12-18T16:12:41.030Z,5.82
2022-12-18T16:15:24.085Z,5.38
2022-12-18T16:18:19.306Z,6.88
2022-12-18T16:20:50.562Z,4.38
2022-12-18T16:23:22.568Z,5.45
2022-12-18T16:25:58.235Z,7.00
2022-12-18T16:31:25.264Z,5.18
2022-12-18T16:34:26.828Z,5.70
2022-12-18T16:37:07.887Z,5.95
2022-12-18T16:39:54.425Z,6.43
2022-12-18T16:42:28.298Z,6.00
2022-12-18T16:45:15.142Z,6.38
2022-12-18T16:47:53.096Z,7.07
2022-12-18T16:50:55.717Z,7.13
2022-12-18T16:53:52.048Z,4.35
2022-12-18T16:56:45.325Z,4.68
2022-12-18T17:00:05.923Z,6.65
2022-12-18T17:05:27.801Z,5.43
2022-12-18T17:07:58.712Z,5.45
2022-12-18T17:10:26.801Z,7.18
2022-12-18T17:13:08.758Z,5.32
2022-12-18T17:15:53.652Z,6.93
2022-12-18T17:21:37.048Z,3.88
2022-12-18T17:24:08.818Z,6.28
2022-12-18T17:26:40.659Z,5.65
2022-12-18T17:29:28.033Z,5.53
2022-12-18T17:31:56.058Z,5.68
2022-12-18T17:34:27.636Z,3.17
2022-12-18T17:36:57.360Z,6.43
2022-12-18T17:39:33.903Z,6.00
2022-12-18T17:42:53.670Z,6.50
2022-12-18T17:45:32.244Z,5.70
2022-12-18T17:48:52.913Z,6.72
2022-12-18T17:51:39.887Z,6.00
2022-12-18T18:05:32.765Z,5.95
2022-12-18T18:12:57.881Z,6.68
2022-12-18T18:20:06.271Z,5.65
2022-12-18T18:22:34.224Z,6.60
2022-12-18T18:25:48.809Z,5.15
2022-12-18T18:32:17.933Z,5.75
2022-12-18T18:35:53.283Z,6.05
2022-12-18T18:38:34.333Z,6.15
2022-12-18T18:48:02.222Z,6.60
2022-12-18T18:52:45.250Z,6.55
2022-12-18T18:56:45.507Z,6.90
2022-12-18T19:03:01.416Z,4.88
2022-12-18T19:06:07.077Z,6.07
2022-12-18T19:12:38.950Z,4.93
2022-12-18T19:15:59.162Z,7.10
2022-12-18T19:18:43.795Z,5.93
2022-12-18T19:25:43.239Z,6.78
2022-12-18T19:28:52.112Z,7.10
2022-12-18T19:32:32.499Z,4.85
2022-12-18T19:35:23.092Z,7.13
2022-12-18T19:38:31.371Z,5.35
2022-12-18T19:41:02.804Z,4.30
2022-12-18T19:43:45.766Z,5.93
2022-12-18T19:46:30.251Z,6.90
2022-12-18T19:49:06.698Z,8.05
2022-12-18T19:56:03.658Z,5.28
2022-12-18T19:58:54.691Z,6.20
2022-12-18T20:01:27.875Z,7.25
2022-12-18T20:03:57.453Z,7.05
2022-12-18T20:07:19.724Z,7.22
2022-12-18T20:10:13.209Z,7.22
2022-12-18T20:12:51.819Z,6.10
2022-12-18T20:16:22.924Z,5.82
2022-12-18T20:25:58.451Z,6.35
2022-12-18T20:28:36.263Z,6.50
2022-12-18T20:35:45.038Z,7.47
2022-12-18T20:38:26.382Z,7.82
2022-12-18T20:41:15.691Z,7.82
2022-12-18T20:46:56.636Z,7.03
2022-12-18T20:49:26.723Z,7.55
2022-12-18T20:52:04.174Z,6.85
2022-12-18T20:54:37.769Z,5.85
2022-12-18T20:57:42.179Z,6.57
2022-12-18T21:18:50.524Z,10.18
2022-12-18T21:21:26.810Z,7.60
2022-12-18T21:24:21.962Z,7.80
2022-12-18T21:55:11.952Z,8.95
2022-12-18T21:57:45.565Z,7.85
2022-12-18T22:00:25.126Z,8.05
2022-12-18T22:03:17.992Z,8.18
2022-12-18T22:05:43.195Z,8.07
2022-12-18T22:08:15.155Z,7.88
2022-12-18T22:10:45.131Z,9.02
2022-12-18T22:13:15.204Z,7.40
2022-12-18T22:15:46.490Z,7.47
2022-12-18T22:18:17.838Z,8.68
2022-12-18T22:21:05.922Z,9.18
2022-12-18T22:23:39.739Z,7.25
2022-12-18T22:26:19.486Z,8.43
2022-12-18T22:29:14.825Z,8.57
2022-12-18T22:31:51.854Z,9.70
2022-12-18T22:34:27.144Z,9.02
2022-12-18T22:37:01.591Z,8.63
2022-12-18T22:39:32.273Z,7.10
2022-12-18T22:42:00.144Z,7.43
2022-12-18T22:44:40.187Z,6.57
2022-12-18T22:47:16.978Z,7.88
2022-12-18T22:49:54.615Z,9.23
2022-12-18T22:52:31.979Z,7.93
2022-12-18T22:55:04.711Z,7.55
2022-12-18T22:57:34.615Z,8.43
2022-12-18T23:00:10.935Z,8.82
2022-12-18T23:02:41.479Z,9.52
2022-12-18T23:05:14.509Z,9.15
2022-12-18T23:07:46.768Z,7.50
2022-12-18T23:10:30.974Z,7.13
2022-12-18T23:13:05.446Z,7.85
2022-12-18T23:15:41.670Z,7.63
2022-12-18T23:18:16.630Z,7.18
2022-12-18T23:20:50.174Z,7.05
2022-12-18T23:23:30.114Z,7.80
2022-12-18T23:26:58.372Z,3.75
2022-12-18T23:30:07.235Z,5.85
2022-12-18T23:35:57.909Z,7.40
2022-12-18T23:39:15.468Z,7.65
2022-12-18T23:41:39.073Z,7.32
2022-12-18T23:47:44.907Z,8.25
2022-12-18T23:51:36.456Z,5.97
2022-12-18T23:53:51.281Z,8.55
2022-12-18T23:56:47.434Z,8.48
